Decoded Metar for KPQL (PASCAGOULA in MS, USA) (IATA:PQL) | Meteo·Mobile Aviation Weather
aviador You're here:

KPQL Decoded Metar

PASCAGOULA in MS, USA
Report Time2018-12-17 06:53:00
UTC Time2018-12-17 07:22:09
Flight Rules vfr VFR
WindCalm
Visibility9999 m
Phenomena:N/A
Clouds:N/A
Expected CloudBase > 400 ft AGL from Temp-Dew spread
CeilingNone
Temp07°C (ISA -8)
Dew Point06°C (93% RH)
AAT6.1°C
QNH1024 hPa
Density Alt-1,184 ft
Elevation20 ft
Report Wrong Elevation
Raw Report
KPQL 170653Z AUTO 00000KT 10SM CLR 07/06 A3023 RMK AO2 SLP238
T00720061=

Extra information for KPQL:More info

Metar Taf Metar & Taf Last 4 Metars F.Rules Stats Wind Profile Meteogram Temp Stats Airport Information Weather charts Add Link Nearby VenuesMetar ALERT Operation Metar Decoded Social comments

AIRNAV info for KPQL